createdAt,value
2019-04-05T06:40:25.472Z,5.42
2019-04-05T06:42:55.871Z,5.33
2019-04-05T06:45:26.825Z,5.37
2019-04-05T06:47:59.368Z,5.35
2019-04-05T06:50:29.754Z,5.38
2019-04-05T06:53:00.115Z,5.36
2019-04-05T06:55:31.960Z,5.37
2019-04-05T06:58:05.067Z,5.39
2019-04-05T07:00:35.868Z,5.39
2019-04-05T07:03:06.345Z,5.41
2019-04-05T07:05:36.744Z,5.44
2019-04-05T07:08:11.136Z,5.47
2019-04-05T07:10:45.274Z,5.47
2019-04-05T07:13:15.972Z,5.49
2019-04-05T07:15:46.874Z,5.51
2019-04-05T07:18:17.494Z,5.53
2019-04-05T07:20:49.669Z,5.52
2019-04-05T07:23:20.918Z,5.58
2019-04-05T07:25:51.306Z,5.61
2019-04-05T07:28:21.686Z,5.60
2019-04-05T07:30:52.108Z,5.62
2019-04-05T07:33:22.508Z,5.62
2019-04-05T07:35:52.910Z,5.68
2019-04-05T07:38:25.129Z,5.71
2019-04-05T07:40:55.436Z,5.73
2019-04-05T07:43:27.169Z,5.76
2019-04-05T07:46:00.486Z,5.78
2019-04-05T07:48:30.764Z,5.78
2019-04-05T07:51:01.074Z,5.78
2019-04-05T07:53:31.771Z,5.77
2019-04-05T07:56:02.871Z,5.77
2019-04-05T07:58:33.145Z,5.79
2019-04-05T08:01:05.547Z,5.79
2019-04-05T08:03:35.913Z,5.85
2019-04-05T08:06:07.615Z,5.90
2019-04-05T08:09:02.070Z,5.92
2019-04-05T08:11:31.910Z,5.98
2019-04-05T08:14:04.110Z,6.03
2019-04-05T08:16:34.954Z,6.01
2019-04-05T08:19:05.400Z,6.01
2019-04-05T08:21:35.691Z,6.01
2019-04-05T08:24:06.174Z,5.95
2019-04-05T08:26:36.771Z,5.95
2019-04-05T08:29:07.270Z,6.00
2019-04-05T08:31:37.484Z,5.99
2019-04-05T08:34:07.786Z,6.08
2019-04-05T08:36:38.099Z,6.10
2019-04-05T08:39:09.951Z,6.14
2019-04-05T08:41:40.390Z,6.20
2019-04-05T08:44:11.106Z,6.17
2019-04-05T08:46:41.437Z,6.15
2019-04-05T08:49:12.003Z,6.25
2019-04-05T08:51:42.465Z,6.33
2019-04-05T08:54:12.816Z,6.44
2019-04-05T08:56:43.212Z,6.31
2019-04-05T08:59:13.635Z,6.37
2019-04-05T09:01:44.008Z,6.30
2019-04-05T09:04:14.334Z,6.38
2019-04-05T09:06:44.758Z,6.45
2019-04-05T09:09:15.075Z,6.45
2019-04-05T09:11:45.334Z,6.41
2019-04-05T09:14:15.814Z,6.44
2019-04-05T09:16:46.107Z,6.50
2019-04-05T09:19:23.374Z,6.45
2019-04-05T09:21:48.679Z,6.55
2019-04-05T09:24:18.972Z,6.46
2019-04-05T09:26:49.321Z,6.56
2019-04-05T09:29:19.858Z,6.57
2019-04-05T09:31:50.142Z,6.56
2019-04-05T09:34:23.119Z,6.62
2019-04-05T09:36:52.521Z,6.59
2019-04-05T09:39:23.133Z,6.70
2019-04-05T09:41:53.457Z,6.73
2019-04-05T09:44:24.027Z,6.71
2019-04-05T09:46:54.447Z,6.80
2019-04-05T09:49:36.160Z,6.75
2019-04-05T09:51:56.918Z,6.91
2019-04-05T09:54:27.664Z,7.00
2019-04-05T09:56:57.950Z,7.02
2019-04-05T09:59:28.348Z,6.97
2019-04-05T10:01:58.714Z,6.90
2019-04-05T10:04:31.207Z,6.92
2019-04-05T10:07:01.103Z,6.98
2019-04-05T10:09:31.441Z,6.92
2019-04-05T10:12:01.917Z,6.92
2019-04-05T10:14:32.441Z,6.92
2019-04-05T10:17:02.728Z,6.91
2019-04-05T10:19:33.086Z,6.95
2019-04-05T10:22:04.138Z,6.96
2019-04-05T10:24:34.523Z,6.88
2019-04-05T10:27:04.926Z,6.96
2019-04-05T10:29:35.236Z,6.92
2019-04-05T10:32:05.902Z,6.93
2019-04-05T10:34:36.645Z,6.98
2019-04-05T10:37:07.012Z,7.05
2019-04-05T10:39:37.658Z,7.00
2019-04-05T10:42:30.332Z,6.91
2019-04-05T10:45:00.870Z,6.92
2019-04-05T10:47:31.808Z,6.91
2019-04-05T10:50:03.708Z,6.91
2019-04-05T10:52:34.186Z,6.86
2019-04-05T10:55:04.567Z,6.99
2019-04-05T10:57:34.867Z,7.29
2019-04-05T11:00:07.640Z,7.26
2019-04-05T11:02:37.940Z,7.28
2019-04-05T11:05:08.942Z,7.08
2019-04-05T11:07:39.251Z,7.16
2019-04-05T11:10:10.914Z,7.37
2019-04-05T11:12:41.288Z,7.44
2019-04-05T11:15:15.007Z,7.46
2019-04-05T11:17:44.882Z,7.47
2019-04-05T11:20:24.089Z,7.42
2019-04-05T11:22:49.983Z,7.43
2019-04-05T11:25:20.962Z,7.43
2019-04-05T11:27:51.468Z,7.28
2019-04-05T11:30:42.271Z,7.53
2019-04-05T11:33:13.115Z,7.49
2019-04-05T11:35:43.827Z,7.51
2019-04-05T11:38:16.411Z,7.48
2019-04-05T11:40:47.451Z,7.34
2019-04-05T11:43:18.335Z,7.39
2019-04-05T11:45:50.844Z,7.36
2019-04-05T11:48:20.892Z,7.35
2019-04-05T11:50:51.141Z,7.47
2019-04-05T11:53:22.172Z,7.43
2019-04-05T11:55:52.505Z,7.27
2019-04-05T11:58:22.909Z,7.38
2019-04-05T12:00:56.242Z,7.63
2019-04-05T12:03:26.918Z,7.78
2019-04-05T12:05:57.345Z,7.74
2019-04-05T12:08:27.700Z,7.81
2019-04-05T12:10:58.029Z,7.80
2019-04-05T12:13:28.310Z,7.85
2019-04-05T12:15:58.679Z,7.76
2019-04-05T12:18:29.462Z,7.64
2019-04-05T12:21:04.972Z,7.65
2019-04-05T12:23:36.938Z,7.59
2019-04-05T12:26:09.112Z,7.53
2019-04-05T12:28:41.340Z,7.70
2019-04-05T12:31:11.671Z,7.67
2019-04-05T12:33:42.305Z,7.74
2019-04-05T12:36:12.888Z,7.72
2019-04-05T12:38:43.354Z,7.74
2019-04-05T12:41:13.689Z,7.82
2019-04-05T12:43:44.740Z,7.78
2019-04-05T12:46:16.248Z,7.67
2019-04-05T12:48:46.676Z,7.75
2019-04-05T12:51:17.512Z,7.61
2019-04-05T12:53:47.822Z,7.94
2019-04-05T12:56:18.287Z,7.90
2019-04-05T12:58:48.708Z,7.84
2019-04-05T13:01:19.414Z,7.85
2019-04-05T13:03:51.379Z,8.04
2019-04-05T13:06:22.519Z,7.90
2019-04-05T13:08:53.909Z,7.74
2019-04-05T13:11:26.648Z,7.79
2019-04-05T13:13:58.720Z,7.93
2019-04-05T13:16:29.128Z,8.14
2019-04-05T13:19:00.980Z,8.05
2019-04-05T13:21:33.042Z,8.16
2019-04-05T13:24:04.459Z,8.06
2019-04-05T13:26:36.860Z,8.10
2019-04-05T13:29:07.459Z,8.08
2019-04-05T13:31:37.734Z,8.06
2019-04-05T13:34:08.371Z,7.90
2019-04-05T13:36:38.678Z,8.01
2019-04-05T13:39:09.725Z,8.01
2019-04-05T13:41:40.050Z,7.99
2019-04-05T13:44:10.478Z,8.06
2019-04-05T13:46:42.759Z,8.13
2019-04-05T13:49:13.271Z,8.13
2019-04-05T13:51:43.571Z,8.17
2019-04-05T13:54:14.181Z,8.31
2019-04-05T13:56:44.563Z,8.46
2019-04-05T13:59:15.103Z,8.30
2019-04-05T14:01:45.491Z,8.47
2019-04-05T14:04:17.114Z,8.51
2019-04-05T14:06:47.641Z,8.54
2019-04-05T14:09:18.064Z,8.75
2019-04-05T14:11:48.377Z,8.83
2019-04-05T14:14:18.748Z,8.54
2019-04-05T14:16:49.171Z,8.41
2019-04-05T14:19:19.771Z,8.42
2019-04-05T14:21:52.695Z,8.46
2019-04-05T14:24:23.420Z,8.52
2019-04-05T14:26:54.380Z,8.47
2019-04-05T14:29:24.744Z,8.33
2019-04-05T14:31:55.123Z,8.37
2019-04-05T14:34:25.412Z,8.38
2019-04-05T14:36:55.723Z,8.35
2019-04-05T14:39:26.111Z,8.37
2019-04-05T14:42:08.789Z,8.35
2019-04-05T14:44:28.938Z,8.32
2019-04-05T14:46:59.624Z,8.24
2019-04-05T14:49:31.211Z,8.24
2019-04-05T14:52:01.930Z,8.24
2019-04-05T14:54:33.063Z,8.20
2019-04-05T14:57:05.666Z,8.19
2019-04-05T14:59:36.195Z,8.11
2019-04-05T15:02:06.992Z,8.10
2019-04-05T15:04:37.433Z,8.13
2019-04-05T15:07:07.726Z,8.12
2019-04-05T15:09:38.327Z,8.12
2019-04-05T15:12:08.747Z,8.19
2019-04-05T15:14:39.005Z,8.17
2019-04-05T15:17:09.304Z,8.07
2019-04-05T15:19:39.616Z,8.11
2019-04-05T15:22:11.721Z,8.11
2019-04-05T15:24:42.259Z,8.11
2019-04-05T15:27:12.637Z,8.21
2019-04-05T15:29:42.918Z,8.25
2019-04-05T15:32:13.366Z,8.32
2019-04-05T15:34:43.667Z,8.29
2019-04-05T15:37:16.011Z,8.40
2019-04-05T15:39:49.094Z,8.42
2019-04-05T15:42:19.437Z,8.36
2019-04-05T15:44:49.736Z,8.37
2019-04-05T15:47:23.258Z,8.34
2019-04-05T15:49:52.895Z,8.35
2019-04-05T15:52:23.328Z,8.27
2019-04-05T15:54:53.678Z,8.31
2019-04-05T15:57:25.531Z,8.29
2019-04-05T15:59:58.424Z,8.36
2019-04-05T16:02:28.832Z,8.29
2019-04-05T16:04:59.201Z,8.29
2019-04-05T16:07:31.380Z,8.32
2019-04-05T16:10:01.688Z,8.28
2019-04-05T16:12:31.982Z,8.24
2019-04-05T16:15:02.282Z,8.20
2019-04-05T16:17:32.805Z,8.23
2019-04-05T16:20:03.399Z,8.25
2019-04-05T16:22:35.847Z,8.24
2019-04-05T16:25:06.391Z,8.22
2019-04-05T16:27:36.673Z,8.19
2019-04-05T16:30:08.274Z,8.15
2019-04-05T16:32:38.599Z,8.15
2019-04-05T16:35:08.992Z,8.15
2019-04-05T16:37:39.532Z,8.17
2019-04-05T16:40:09.987Z,8.14
2019-04-05T16:42:40.348Z,8.16
2019-04-05T16:45:11.765Z,8.05
2019-04-05T16:47:43.231Z,7.98
2019-04-05T16:50:16.363Z,7.93
2019-04-05T16:52:46.751Z,7.88
2019-04-05T16:55:17.471Z,7.87
2019-04-05T16:57:47.775Z,7.86
2019-04-05T17:00:18.533Z,7.83
2019-04-05T17:02:48.950Z,7.79
2019-04-05T17:05:19.204Z,7.76
2019-04-05T17:07:49.814Z,7.76
2019-04-05T17:10:20.199Z,7.73
2019-04-05T17:12:50.524Z,7.71
2019-04-05T17:15:20.890Z,7.67
2019-04-05T17:17:51.267Z,7.64
2019-04-05T17:20:21.533Z,7.62
2019-04-05T17:22:58.107Z,7.56
2019-04-05T17:25:23.937Z,7.55
2019-04-05T17:27:54.332Z,7.54
2019-04-05T17:30:24.591Z,7.47
2019-04-05T17:32:54.891Z,7.43
2019-04-05T17:35:25.235Z,7.36
2019-04-05T17:37:55.877Z,7.34
2019-04-05T17:40:26.168Z,7.28
2019-04-05T17:42:56.902Z,7.27
2019-04-05T17:45:27.253Z,7.25
2019-04-05T17:47:57.541Z,7.27
2019-04-05T17:50:33.381Z,7.28
2019-04-05T17:53:12.102Z,7.28
2019-04-05T17:55:36.135Z,7.32
2019-04-05T17:58:07.426Z,7.30
2019-04-05T18:00:38.129Z,7.30
2019-04-05T18:03:08.815Z,7.32
2019-04-05T18:05:40.707Z,7.33
2019-04-05T18:08:11.026Z,7.32
2019-04-05T18:10:41.631Z,7.34
2019-04-05T18:13:11.945Z,7.37
2019-04-05T18:15:52.225Z,7.37
2019-04-05T18:18:14.827Z,7.37
2019-04-05T18:20:45.193Z,7.36
2019-04-05T18:23:24.839Z,7.39
2019-04-05T18:25:47.968Z,7.40
2019-04-05T18:28:18.274Z,7.38
2019-04-05T18:30:48.992Z,7.38
2019-04-05T18:33:19.362Z,7.36
2019-04-05T18:35:49.737Z,7.35
2019-04-05T18:38:19.997Z,7.35
2019-04-05T18:40:50.691Z,7.33
2019-04-05T18:43:21.029Z,7.32
2019-04-05T18:45:51.344Z,7.33
2019-04-05T18:48:21.778Z,7.30
2019-04-05T18:50:52.110Z,7.30
2019-04-05T18:53:22.406Z,7.29
2019-04-05T18:55:53.753Z,7.27
2019-04-05T18:58:24.009Z,7.29
2019-04-05T19:00:54.759Z,7.30
2019-04-05T19:03:25.206Z,7.30
2019-04-05T19:05:55.580Z,7.32
2019-04-05T19:08:38.673Z,7.33
2019-04-05T19:10:58.257Z,7.35
2019-04-05T19:13:28.529Z,7.38
2019-04-05T19:15:59.497Z,7.39
2019-04-05T19:18:30.505Z,7.39
2019-04-05T19:21:01.026Z,7.41
2019-04-05T19:23:31.350Z,7.41
2019-04-05T19:26:01.962Z,7.41
2019-04-05T19:28:32.271Z,7.37
2019-04-05T19:48:46.967Z,7.46
2019-04-05T19:51:17.279Z,7.46
2019-04-05T19:53:47.881Z,7.44
2019-04-05T19:56:18.388Z,7.46
2019-04-05T19:58:48.761Z,7.43
2019-04-05T20:01:19.165Z,7.42
2019-04-05T20:03:49.410Z,7.40
2019-04-05T20:06:20.805Z,7.40
2019-04-05T20:08:51.513Z,7.40
2019-04-05T20:11:22.407Z,7.41
2019-04-05T20:13:52.694Z,7.42
2019-04-05T20:16:23.015Z,7.40
2019-04-05T20:18:53.621Z,7.40
2019-04-05T20:21:23.889Z,7.42
2019-04-05T20:23:54.139Z,7.42
2019-04-05T20:26:24.509Z,7.44
2019-04-05T20:28:54.833Z,7.45
2019-04-05T20:31:25.107Z,7.45
2019-04-05T20:33:55.407Z,7.46
2019-04-05T20:36:25.687Z,7.44
2019-04-05T20:38:56.143Z,7.45
2019-04-05T20:41:26.526Z,7.46
2019-04-05T20:43:56.887Z,7.42
2019-04-05T20:46:27.308Z,7.39
2019-04-05T20:48:57.578Z,7.40
2019-04-05T20:51:27.893Z,7.39
2019-04-05T20:53:58.206Z,7.39
2019-04-05T20:56:28.545Z,7.37
2019-04-05T20:58:58.852Z,7.35
2019-04-05T21:01:29.213Z,7.33
2019-04-05T21:03:59.507Z,7.33
2019-04-05T21:06:29.880Z,7.36
2019-04-05T21:09:00.428Z,7.35
2019-04-05T21:11:30.967Z,7.39
2019-04-05T21:14:01.767Z,7.38
2019-04-05T21:16:32.110Z,7.49
2019-04-05T21:19:04.935Z,7.46
2019-04-05T21:21:34.516Z,7.46
2019-04-05T21:24:04.959Z,7.45
2019-04-05T21:26:35.221Z,7.44
2019-04-05T21:29:05.632Z,7.45
2019-04-05T21:31:36.063Z,7.43
2019-04-05T21:34:06.627Z,7.42
2019-04-05T21:36:36.927Z,7.39
2019-04-05T21:39:08.888Z,7.39
2019-04-05T21:41:39.212Z,7.38
2019-04-05T21:44:09.528Z,7.37
2019-04-05T21:46:39.897Z,7.40
2019-04-05T21:49:10.553Z,7.39
2019-04-05T21:51:40.918Z,7.41
2019-04-05T21:54:11.544Z,7.40
2019-04-05T21:56:41.814Z,7.41
2019-04-05T21:59:12.525Z,7.40
2019-04-05T22:01:42.875Z,7.41
2019-04-05T22:04:13.556Z,7.40
2019-04-05T22:06:43.885Z,7.44
2019-04-05T22:09:14.370Z,7.43
2019-04-05T22:11:44.639Z,7.43
2019-04-05T22:14:14.924Z,7.42
2019-04-05T22:16:45.644Z,7.40
2019-04-05T22:19:16.017Z,7.40
2019-04-05T22:21:46.414Z,7.37
2019-04-05T22:24:16.770Z,7.38
2019-04-05T22:26:47.084Z,7.36
2019-04-05T22:29:17.326Z,7.37
2019-04-05T22:31:47.673Z,7.37
2019-04-05T22:34:17.922Z,7.37
2019-04-05T22:36:48.614Z,7.38
2019-04-05T22:39:18.849Z,7.37
2019-04-05T22:41:49.172Z,7.38
2019-04-05T22:44:19.488Z,7.38
2019-04-05T22:46:49.838Z,7.37
2019-04-05T22:49:20.105Z,7.36
2019-04-05T22:51:50.427Z,7.36
2019-04-05T22:54:20.687Z,7.35
2019-04-05T22:56:50.986Z,7.32
2019-04-05T22:59:21.844Z,7.32
2019-04-05T23:01:52.136Z,7.26
2019-04-05T23:04:22.524Z,7.28
2019-04-05T23:06:52.817Z,7.31
2019-04-05T23:09:23.149Z,7.26
2019-04-05T23:11:53.427Z,7.26
2019-04-05T23:14:23.950Z,7.30
2019-04-05T23:16:54.494Z,7.28
2019-04-05T23:19:24.996Z,7.28
2019-04-05T23:21:55.351Z,7.30
2019-04-05T23:24:25.721Z,7.33
2019-04-05T23:26:56.098Z,7.35
2019-04-05T23:29:26.391Z,7.35
2019-04-05T23:31:56.801Z,7.35
2019-04-05T23:34:27.092Z,7.36
2019-04-05T23:36:57.744Z,7.37
2019-04-05T23:39:28.360Z,7.41
2019-04-05T23:41:59.320Z,7.44
2019-04-05T23:44:29.718Z,7.42
2019-04-05T23:47:00.078Z,7.42
2019-04-05T23:49:30.357Z,7.44
2019-04-05T23:52:01.047Z,7.44
2019-04-05T23:54:31.362Z,7.42
2019-04-05T23:57:01.733Z,7.42
2019-04-05T23:59:32.046Z,7.44
